sensor_id;sensor_type;location;lat;lon;timestamp;temperature;humidity
51011;DHT22;37038;50.182;8.624;2023-07-20T00:02:43;19.50;93.30
51011;DHT22;37038;50.182;8.624;2023-07-20T00:05:31;19.30;93.70
51011;DHT22;37038;50.182;8.624;2023-07-20T00:08:18;19.40;95.70
51011;DHT22;37038;50.182;8.624;2023-07-20T00:11:06;19.20;95.40
51011;DHT22;37038;50.182;8.624;2023-07-20T00:13:53;19.20;96.60
51011;DHT22;37038;50.182;8.624;2023-07-20T00:16:40;19.30;97.10
51011;DHT22;37038;50.182;8.624;2023-07-20T00:19:28;19.50;96.60
51011;DHT22;37038;50.182;8.624;2023-07-20T00:22:15;19.50;96.50
51011;DHT22;37038;50.182;8.624;2023-07-20T00:25:03;19.30;97.60
51011;DHT22;37038;50.182;8.624;2023-07-20T00:27:51;19.10;97.60
51011;DHT22;37038;50.182;8.624;2023-07-20T00:30:38;19.10;97.40
51011;DHT22;37038;50.182;8.624;2023-07-20T00:33:26;19.20;97.40
51011;DHT22;37038;50.182;8.624;2023-07-20T00:36:13;19.20;97.50
51011;DHT22;37038;50.182;8.624;2023-07-20T00:39:02;19.40;98.10
51011;DHT22;37038;50.182;8.624;2023-07-20T00:41:50;19.20;97.80
51011;DHT22;37038;50.182;8.624;2023-07-20T00:44:43;19.10;98.50
51011;DHT22;37038;50.182;8.624;2023-07-20T00:47:31;19.20;98.40
51011;DHT22;37038;50.182;8.624;2023-07-20T00:50:18;19.10;98.20
51011;DHT22;37038;50.182;8.624;2023-07-20T00:53:06;19.00;98.60
51011;DHT22;37038;50.182;8.624;2023-07-20T00:55:54;19.00;99.00
51011;DHT22;37038;50.182;8.624;2023-07-20T00:58:42;19.20;99.80
51011;DHT22;37038;50.182;8.624;2023-07-20T01:01:30;19.50;99.10
51011;DHT22;37038;50.182;8.624;2023-07-20T01:04:17;19.10;99.60
51011;DHT22;37038;50.182;8.624;2023-07-20T01:07:13;19.00;99.50
51011;DHT22;37038;50.182;8.624;2023-07-20T01:10:21;18.70;99.90
51011;DHT22;37038;50.182;8.624;2023-07-20T01:13:10;18.90;99.90
51011;DHT22;37038;50.182;8.624;2023-07-20T01:16:01;18.70;99.90
51011;DHT22;37038;50.182;8.624;2023-07-20T01:18:49;18.80;99.90
51011;DHT22;37038;50.182;8.624;2023-07-20T01:21:45;18.70;99.90
51011;DHT22;37038;50.182;8.624;2023-07-20T01:28:08;18.70;99.90
51011;DHT22;37038;50.182;8.624;2023-07-20T01:33:39;17.90;99.90
51011;DHT22;37038;50.182;8.624;2023-07-20T01:36:29;18.20;99.90
51011;DHT22;37038;50.182;8.624;2023-07-20T01:39:17;18.00;99.90
51011;DHT22;37038;50.182;8.624;2023-07-20T01:42:05;17.90;99.90
51011;DHT22;37038;50.182;8.624;2023-07-20T01:44:53;17.90;99.90
51011;DHT22;37038;50.182;8.624;2023-07-20T01:47:40;17.80;99.90
51011;DHT22;37038;50.182;8.624;2023-07-20T01:50:28;17.80;99.90
51011;DHT22;37038;50.182;8.624;2023-07-20T01:53:15;17.60;99.90
51011;DHT22;37038;50.182;8.624;2023-07-20T01:56:03;17.70;99.90
51011;DHT22;37038;50.182;8.624;2023-07-20T01:58:50;17.80;99.90
51011;DHT22;37038;50.182;8.624;2023-07-20T02:01:38;17.50;99.90
51011;DHT22;37038;50.182;8.624;2023-07-20T02:04:26;17.40;99.90
51011;DHT22;37038;50.182;8.624;2023-07-20T02:07:13;17.50;99.90
51011;DHT22;37038;50.182;8.624;2023-07-20T02:10:00;17.60;99.90
51011;DHT22;37038;50.182;8.624;2023-07-20T02:12:51;17.80;99.90
51011;DHT22;37038;50.182;8.624;2023-07-20T02:15:38;17.60;99.90
51011;DHT22;37038;50.182;8.624;2023-07-20T02:18:26;17.50;99.90
51011;DHT22;37038;50.182;8.624;2023-07-20T02:21:13;17.40;99.90
51011;DHT22;37038;50.182;8.624;2023-07-20T02:24:01;17.20;99.90
51011;DHT22;37038;50.182;8.624;2023-07-20T02:26:48;17.20;99.90
51011;DHT22;37038;50.182;8.624;2023-07-20T02:29:35;17.50;99.90
51011;DHT22;37038;50.182;8.624;2023-07-20T02:32:23;17.50;99.90
51011;DHT22;37038;50.182;8.624;2023-07-20T02:35:11;17.40;99.90
51011;DHT22;37038;50.182;8.624;2023-07-20T02:37:59;17.30;99.90
51011;DHT22;37038;50.182;8.624;2023-07-20T02:40:46;17.30;99.90
51011;DHT22;37038;50.182;8.624;2023-07-20T02:43:34;17.00;99.90
51011;DHT22;37038;50.182;8.624;2023-07-20T02:46:21;17.00;99.90
51011;DHT22;37038;50.182;8.624;2023-07-20T02:49:09;16.90;99.90
51011;DHT22;37038;50.182;8.624;2023-07-20T02:51:57;17.00;99.90
51011;DHT22;37038;50.182;8.624;2023-07-20T02:54:45;17.00;99.90
51011;DHT22;37038;50.182;8.624;2023-07-20T02:57:34;17.20;99.90
51011;DHT22;37038;50.182;8.624;2023-07-20T03:00:22;17.10;99.90
51011;DHT22;37038;50.182;8.624;2023-07-20T03:03:10;17.20;99.90
51011;DHT22;37038;50.182;8.624;2023-07-20T03:05:58;17.20;99.90
51011;DHT22;37038;50.182;8.624;2023-07-20T03:08:46;17.00;99.90
51011;DHT22;37038;50.182;8.624;2023-07-20T03:11:39;16.80;99.90
51011;DHT22;37038;50.182;8.624;2023-07-20T03:14:26;16.90;99.90
51011;DHT22;37038;50.182;8.624;2023-07-20T03:17:14;17.00;99.90
51011;DHT22;37038;50.182;8.624;2023-07-20T03:20:01;17.40;99.90
51011;DHT22;37038;50.182;8.624;2023-07-20T03:22:50;17.30;99.90
51011;DHT22;37038;50.182;8.624;2023-07-20T03:25:37;17.10;99.90
51011;DHT22;37038;50.182;8.624;2023-07-20T03:28:26;16.90;99.90
51011;DHT22;37038;50.182;8.624;2023-07-20T03:31:13;16.90;99.90
51011;DHT22;37038;50.182;8.624;2023-07-20T03:34:02;17.00;99.90
51011;DHT22;37038;50.182;8.624;2023-07-20T03:36:50;17.00;99.90
51011;DHT22;37038;50.182;8.624;2023-07-20T03:39:37;17.00;99.90
51011;DHT22;37038;50.182;8.624;2023-07-20T03:42:25;17.00;99.90
51011;DHT22;37038;50.182;8.624;2023-07-20T03:45:12;16.90;99.90
51011;DHT22;37038;50.182;8.624;2023-07-20T03:47:59;16.90;99.90
51011;DHT22;37038;50.182;8.624;2023-07-20T03:50:47;17.00;99.90
51011;DHT22;37038;50.182;8.624;2023-07-20T03:53:35;17.10;99.90
51011;DHT22;37038;50.182;8.624;2023-07-20T03:56:22;17.10;99.90
51011;DHT22;37038;50.182;8.624;2023-07-20T03:59:11;17.00;99.90
51011;DHT22;37038;50.182;8.624;2023-07-20T04:01:59;17.00;99.90
51011;DHT22;37038;50.182;8.624;2023-07-20T04:04:46;17.10;99.90
51011;DHT22;37038;50.182;8.624;2023-07-20T04:07:34;17.00;99.90
51011;DHT22;37038;50.182;8.624;2023-07-20T04:10:21;16.90;99.90
51011;DHT22;37038;50.182;8.624;2023-07-20T04:13:09;17.00;99.90
51011;DHT22;37038;50.182;8.624;2023-07-20T04:15:56;17.00;99.90
51011;DHT22;37038;50.182;8.624;2023-07-20T04:18:45;17.00;99.90
51011;DHT22;37038;50.182;8.624;2023-07-20T04:21:32;17.00;99.90
51011;DHT22;37038;50.182;8.624;2023-07-20T04:24:20;17.00;99.90
51011;DHT22;37038;50.182;8.624;2023-07-20T04:27:07;16.90;99.90
51011;DHT22;37038;50.182;8.624;2023-07-20T04:29:54;16.90;99.90
51011;DHT22;37038;50.182;8.624;2023-07-20T04:32:42;16.90;99.90
51011;DHT22;37038;50.182;8.624;2023-07-20T04:38:38;16.90;99.90
51011;DHT22;37038;50.182;8.624;2023-07-20T04:41:27;16.80;99.90
51011;DHT22;37038;50.182;8.624;2023-07-20T04:44:14;16.70;99.90
51011;DHT22;37038;50.182;8.624;2023-07-20T04:47:02;16.90;99.90
51011;DHT22;37038;50.182;8.624;2023-07-20T04:49:50;17.20;99.90
51011;DHT22;37038;50.182;8.624;2023-07-20T04:52:38;17.70;99.90
51011;DHT22;37038;50.182;8.624;2023-07-20T04:55:29;18.10;99.90
51011;DHT22;37038;50.182;8.624;2023-07-20T04:58:17;18.10;99.90
51011;DHT22;37038;50.182;8.624;2023-07-20T05:01:05;17.80;99.90
51011;DHT22;37038;50.182;8.624;2023-07-20T05:03:53;18.30;99.90
51011;DHT22;37038;50.182;8.624;2023-07-20T05:06:41;18.90;99.90
51011;DHT22;37038;50.182;8.624;2023-07-20T05:09:30;19.20;99.90
51011;DHT22;37038;50.182;8.624;2023-07-20T05:12:17;19.40;99.90
51011;DHT22;37038;50.182;8.624;2023-07-20T05:15:13;19.10;99.90
51011;DHT22;37038;50.182;8.624;2023-07-20T05:18:03;18.70;99.90
51011;DHT22;37038;50.182;8.624;2023-07-20T05:20:50;19.50;99.90
51011;DHT22;37038;50.182;8.624;2023-07-20T05:23:38;19.50;99.90
51011;DHT22;37038;50.182;8.624;2023-07-20T05:26:26;19.40;99.90
51011;DHT22;37038;50.182;8.624;2023-07-20T05:29:13;20.10;99.90
51011;DHT22;37038;50.182;8.624;2023-07-20T05:32:01;20.50;99.90
51011;DHT22;37038;50.182;8.624;2023-07-20T05:35:00;20.10;99.90
51011;DHT22;37038;50.182;8.624;2023-07-20T05:37:51;20.70;99.90
51011;DHT22;37038;50.182;8.624;2023-07-20T05:40:43;20.00;99.90
51011;DHT22;37038;50.182;8.624;2023-07-20T05:43:34;19.80;99.90
51011;DHT22;37038;50.182;8.624;2023-07-20T05:46:28;18.80;99.90
51011;DHT22;37038;50.182;8.624;2023-07-20T05:49:33;19.60;99.90
51011;DHT22;37038;50.182;8.624;2023-07-20T05:52:33;19.90;99.90
51011;DHT22;37038;50.182;8.624;2023-07-20T05:55:21;20.40;99.90
51011;DHT22;37038;50.182;8.624;2023-07-20T05:58:19;20.10;99.90
51011;DHT22;37038;50.182;8.624;2023-07-20T06:01:14;20.00;99.90
51011;DHT22;37038;50.182;8.624;2023-07-20T06:04:06;20.90;99.90
51011;DHT22;37038;50.182;8.624;2023-07-20T06:10:08;20.50;99.90
51011;DHT22;37038;50.182;8.624;2023-07-20T06:12:56;19.70;99.90
51011;DHT22;37038;50.182;8.624;2023-07-20T06:15:43;19.20;99.90
51011;DHT22;37038;50.182;8.624;2023-07-20T06:18:31;19.20;99.90
51011;DHT22;37038;50.182;8.624;2023-07-20T06:21:21;19.50;99.90
51011;DHT22;37038;50.182;8.624;2023-07-20T06:24:24;19.60;99.90
51011;DHT22;37038;50.182;8.624;2023-07-20T06:27:20;19.90;99.90
51011;DHT22;37038;50.182;8.624;2023-07-20T06:30:28;19.80;99.90
51011;DHT22;37038;50.182;8.624;2023-07-20T06:33:18;19.30;99.90
51011;DHT22;37038;50.182;8.624;2023-07-20T06:36:09;19.80;99.90
51011;DHT22;37038;50.182;8.624;2023-07-20T06:39:05;20.10;99.90
51011;DHT22;37038;50.182;8.624;2023-07-20T06:41:56;20.00;99.90
51011;DHT22;37038;50.182;8.624;2023-07-20T06:44:44;20.40;99.90
51011;DHT22;37038;50.182;8.624;2023-07-20T06:47:39;20.20;99.90
51011;DHT22;37038;50.182;8.624;2023-07-20T06:50:34;19.90;99.90
51011;DHT22;37038;50.182;8.624;2023-07-20T06:53:24;20.60;99.90
51011;DHT22;37038;50.182;8.624;2023-07-20T06:56:16;20.50;99.90
51011;DHT22;37038;50.182;8.624;2023-07-20T06:59:11;20.30;99.90
51011;DHT22;37038;50.182;8.624;2023-07-20T07:02:02;20.10;99.90
51011;DHT22;37038;50.182;8.624;2023-07-20T07:05:01;20.00;99.90
51011;DHT22;37038;50.182;8.624;2023-07-20T07:08:06;19.70;99.90
51011;DHT22;37038;50.182;8.624;2023-07-20T07:10:54;19.50;99.90
51011;DHT22;37038;50.182;8.624;2023-07-20T07:13:44;19.10;99.90
51011;DHT22;37038;50.182;8.624;2023-07-20T07:16:34;19.20;99.90
51011;DHT22;37038;50.182;8.624;2023-07-20T07:19:25;19.80;99.90
51011;DHT22;37038;50.182;8.624;2023-07-20T07:22:14;19.70;99.90
51011;DHT22;37038;50.182;8.624;2023-07-20T07:25:07;20.20;99.90
51011;DHT22;37038;50.182;8.624;2023-07-20T07:27:55;20.40;99.90
51011;DHT22;37038;50.182;8.624;2023-07-20T07:30:43;20.40;99.90
51011;DHT22;37038;50.182;8.624;2023-07-20T07:33:31;20.10;99.90
51011;DHT22;37038;50.182;8.624;2023-07-20T07:36:19;21.00;99.90
51011;DHT22;37038;50.182;8.624;2023-07-20T07:39:07;22.50;99.90
51011;DHT22;37038;50.182;8.624;2023-07-20T07:41:58;22.20;99.90
51011;DHT22;37038;50.182;8.624;2023-07-20T07:44:46;21.70;99.90
51011;DHT22;37038;50.182;8.624;2023-07-20T07:47:33;21.70;99.90
51011;DHT22;37038;50.182;8.624;2023-07-20T07:50:21;20.10;99.90
51011;DHT22;37038;50.182;8.624;2023-07-20T07:53:09;19.90;99.90
51011;DHT22;37038;50.182;8.624;2023-07-20T07:55:57;20.70;99.90
51011;DHT22;37038;50.182;8.624;2023-07-20T07:58:49;21.10;99.90
51011;DHT22;37038;50.182;8.624;2023-07-20T08:01:38;21.20;99.90
51011;DHT22;37038;50.182;8.624;2023-07-20T08:04:27;21.70;99.90
51011;DHT22;37038;50.182;8.624;2023-07-20T08:07:22;22.00;99.90
51011;DHT22;37038;50.182;8.624;2023-07-20T08:10:12;23.40;99.50
51011;DHT22;37038;50.182;8.624;2023-07-20T08:13:00;22.30;99.90
51011;DHT22;37038;50.182;8.624;2023-07-20T08:15:50;22.40;99.90
51011;DHT22;37038;50.182;8.624;2023-07-20T08:18:43;23.00;99.50
51011;DHT22;37038;50.182;8.624;2023-07-20T08:21:34;22.80;99.90
51011;DHT22;37038;50.182;8.624;2023-07-20T08:24:39;23.00;99.90
51011;DHT22;37038;50.182;8.624;2023-07-20T08:27:38;24.80;97.70
51011;DHT22;37038;50.182;8.624;2023-07-20T08:30:46;25.90;93.50
51011;DHT22;37038;50.182;8.624;2023-07-20T08:33:35;24.00;95.30
51011;DHT22;37038;50.182;8.624;2023-07-20T08:36:35;23.80;96.20
51011;DHT22;37038;50.182;8.624;2023-07-20T08:47:23;25.20;90.00
51011;DHT22;37038;50.182;8.624;2023-07-20T08:50:38;25.80;88.70
51011;DHT22;37038;50.182;8.624;2023-07-20T08:53:29;24.40;91.00
51011;DHT22;37038;50.182;8.624;2023-07-20T08:56:21;24.60;90.70
51011;DHT22;37038;50.182;8.624;2023-07-20T08:59:23;23.30;91.40
51011;DHT22;37038;50.182;8.624;2023-07-20T09:02:11;22.60;93.10
51011;DHT22;37038;50.182;8.624;2023-07-20T09:08:47;21.30;95.80
51011;DHT22;37038;50.182;8.624;2023-07-20T09:11:36;21.70;96.50
51011;DHT22;37038;50.182;8.624;2023-07-20T09:14:35;22.40;95.90
51011;DHT22;37038;50.182;8.624;2023-07-20T09:17:32;23.70;93.50
51011;DHT22;37038;50.182;8.624;2023-07-20T09:20:27;23.90;91.40
51011;DHT22;37038;50.182;8.624;2023-07-20T09:23:29;22.80;93.00
51011;DHT22;37038;50.182;8.624;2023-07-20T09:26:19;21.80;93.20
51011;DHT22;37038;50.182;8.624;2023-07-20T09:29:07;21.60;94.80
51011;DHT22;37038;50.182;8.624;2023-07-20T09:32:02;21.40;95.60
51011;DHT22;37038;50.182;8.624;2023-07-20T09:34:56;23.70;93.40
51011;DHT22;37038;50.182;8.624;2023-07-20T09:38:09;26.00;90.90
51011;DHT22;37038;50.182;8.624;2023-07-20T09:41:02;24.60;89.70
51011;DHT22;37038;50.182;8.624;2023-07-20T09:44:07;25.30;81.90
51011;DHT22;37038;50.182;8.624;2023-07-20T09:47:03;23.50;87.90
51011;DHT22;37038;50.182;8.624;2023-07-20T09:49:58;24.70;85.90
51011;DHT22;37038;50.182;8.624;2023-07-20T09:52:55;25.40;81.50
51011;DHT22;37038;50.182;8.624;2023-07-20T09:55:49;24.90;81.10
51011;DHT22;37038;50.182;8.624;2023-07-20T09:58:41;24.20;80.30
51011;DHT22;37038;50.182;8.624;2023-07-20T10:01:32;23.50;83.50
51011;DHT22;37038;50.182;8.624;2023-07-20T10:04:24;23.40;85.10
51011;DHT22;37038;50.182;8.624;2023-07-20T10:07:16;23.20;85.20
51011;DHT22;37038;50.182;8.624;2023-07-20T10:10:05;23.20;85.70
51011;DHT22;37038;50.182;8.624;2023-07-20T10:12:55;23.90;79.30
51011;DHT22;37038;50.182;8.624;2023-07-20T10:15:50;26.20;73.50
51011;DHT22;37038;50.182;8.624;2023-07-20T10:21:48;25.20;73.80
51011;DHT22;37038;50.182;8.624;2023-07-20T10:24:51;25.90;69.20
51011;DHT22;37038;50.182;8.624;2023-07-20T10:27:49;25.80;66.30
51011;DHT22;37038;50.182;8.624;2023-07-20T10:30:40;24.60;69.30
51011;DHT22;37038;50.182;8.624;2023-07-20T10:33:31;26.70;65.80
51011;DHT22;37038;50.182;8.624;2023-07-20T10:36:24;27.20;64.90
51011;DHT22;37038;50.182;8.624;2023-07-20T10:39:24;25.00;69.30
51011;DHT22;37038;50.182;8.624;2023-07-20T10:42:24;26.10;69.00
51011;DHT22;37038;50.182;8.624;2023-07-20T10:45:39;27.30;66.30
51011;DHT22;37038;50.182;8.624;2023-07-20T10:48:34;27.80;61.90
51011;DHT22;37038;50.182;8.624;2023-07-20T10:51:30;27.80;62.20
51011;DHT22;37038;50.182;8.624;2023-07-20T10:57:25;26.00;61.80
51011;DHT22;37038;50.182;8.624;2023-07-20T11:00:18;28.20;58.80
51011;DHT22;37038;50.182;8.624;2023-07-20T11:03:29;29.10;57.20
51011;DHT22;37038;50.182;8.624;2023-07-20T11:09:33;30.20;45.40
51011;DHT22;37038;50.182;8.624;2023-07-20T11:12:29;27.70;48.30
51011;DHT22;37038;50.182;8.624;2023-07-20T11:15:45;25.30;53.20
51011;DHT22;37038;50.182;8.624;2023-07-20T11:18:44;26.80;55.30
51011;DHT22;37038;50.182;8.624;2023-07-20T11:21:40;26.00;50.50
51011;DHT22;37038;50.182;8.624;2023-07-20T11:24:54;25.20;51.50
51011;DHT22;37038;50.182;8.624;2023-07-20T11:27:52;24.30;56.10
51011;DHT22;37038;50.182;8.624;2023-07-20T11:30:52;26.20;55.30
51011;DHT22;37038;50.182;8.624;2023-07-20T11:33:46;25.90;46.70
51011;DHT22;37038;50.182;8.624;2023-07-20T11:36:35;27.30;46.00
51011;DHT22;37038;50.182;8.624;2023-07-20T11:39:30;27.00;44.10
51011;DHT22;37038;50.182;8.624;2023-07-20T11:42:22;26.20;48.00
51011;DHT22;37038;50.182;8.624;2023-07-20T11:45:14;25.80;51.20
51011;DHT22;37038;50.182;8.624;2023-07-20T11:48:05;26.60;49.00
51011;DHT22;37038;50.182;8.624;2023-07-20T11:51:04;28.10;47.90
51011;DHT22;37038;50.182;8.624;2023-07-20T11:54:05;29.80;40.40
51011;DHT22;37038;50.182;8.624;2023-07-20T11:57:30;27.70;43.90
51011;DHT22;37038;50.182;8.624;2023-07-20T12:00:24;26.00;50.20
51011;DHT22;37038;50.182;8.624;2023-07-20T12:03:17;25.90;50.30
51011;DHT22;37038;50.182;8.624;2023-07-20T12:06:08;24.60;53.80
51011;DHT22;37038;50.182;8.624;2023-07-20T12:08:59;23.30;56.60
51011;DHT22;37038;50.182;8.624;2023-07-20T12:11:49;23.50;55.40
51011;DHT22;37038;50.182;8.624;2023-07-20T12:14:44;23.40;56.10
51011;DHT22;37038;50.182;8.624;2023-07-20T12:17:36;24.60;53.20
51011;DHT22;37038;50.182;8.624;2023-07-20T12:20:30;24.50;50.60
51011;DHT22;37038;50.182;8.624;2023-07-20T12:23:19;24.40;55.20
51011;DHT22;37038;50.182;8.624;2023-07-20T12:26:08;26.20;52.70
51011;DHT22;37038;50.182;8.624;2023-07-20T12:29:01;27.40;47.70
51011;DHT22;37038;50.182;8.624;2023-07-20T12:31:53;27.60;46.70
51011;DHT22;37038;50.182;8.624;2023-07-20T12:34:49;28.50;45.00
51011;DHT22;37038;50.182;8.624;2023-07-20T12:37:40;27.50;42.90
51011;DHT22;37038;50.182;8.624;2023-07-20T12:40:31;24.60;49.20
51011;DHT22;37038;50.182;8.624;2023-07-20T12:43:36;25.10;48.60
51011;DHT22;37038;50.182;8.624;2023-07-20T12:46:28;24.80;47.70
51011;DHT22;37038;50.182;8.624;2023-07-20T12:49:21;24.20;49.40
51011;DHT22;37038;50.182;8.624;2023-07-20T12:52:08;24.00;47.70
51011;DHT22;37038;50.182;8.624;2023-07-20T12:54:58;23.90;49.40
51011;DHT22;37038;50.182;8.624;2023-07-20T12:57:49;24.60;49.70
51011;DHT22;37038;50.182;8.624;2023-07-20T13:00:37;24.50;48.40
51011;DHT22;37038;50.182;8.624;2023-07-20T13:03:27;24.60;51.00
51011;DHT22;37038;50.182;8.624;2023-07-20T13:06:18;24.10;49.10
51011;DHT22;37038;50.182;8.624;2023-07-20T13:09:18;24.70;49.40
51011;DHT22;37038;50.182;8.624;2023-07-20T13:12:05;25.90;50.20
51011;DHT22;37038;50.182;8.624;2023-07-20T13:14:57;25.20;50.60
51011;DHT22;37038;50.182;8.624;2023-07-20T13:17:52;24.70;50.50
51011;DHT22;37038;50.182;8.624;2023-07-20T13:20:40;24.40;47.30
51011;DHT22;37038;50.182;8.624;2023-07-20T13:23:28;24.80;47.40
51011;DHT22;37038;50.182;8.624;2023-07-20T13:26:19;24.40;49.10
51011;DHT22;37038;50.182;8.624;2023-07-20T13:29:13;24.50;48.90
51011;DHT22;37038;50.182;8.624;2023-07-20T13:32:04;24.80;49.00
51011;DHT22;37038;50.182;8.624;2023-07-20T13:34:55;25.20;48.10
51011;DHT22;37038;50.182;8.624;2023-07-20T13:37:44;24.50;47.10
51011;DHT22;37038;50.182;8.624;2023-07-20T13:40:34;24.60;46.70
51011;DHT22;37038;50.182;8.624;2023-07-20T13:43:27;25.30;46.40
51011;DHT22;37038;50.182;8.624;2023-07-20T13:46:22;25.10;48.20
51011;DHT22;37038;50.182;8.624;2023-07-20T13:49:30;26.00;41.00
51011;DHT22;37038;50.182;8.624;2023-07-20T13:52:36;25.70;41.70
51011;DHT22;37038;50.182;8.624;2023-07-20T13:55:30;25.00;41.60
51011;DHT22;37038;50.182;8.624;2023-07-20T13:58:26;25.30;40.60
51011;DHT22;37038;50.182;8.624;2023-07-20T14:01:14;25.60;41.10
51011;DHT22;37038;50.182;8.624;2023-07-20T14:04:14;25.40;40.80
51011;DHT22;37038;50.182;8.624;2023-07-20T14:07:05;25.20;39.60
51011;DHT22;37038;50.182;8.624;2023-07-20T14:10:21;25.00;36.70
51011;DHT22;37038;50.182;8.624;2023-07-20T14:13:16;24.60;40.10
51011;DHT22;37038;50.182;8.624;2023-07-20T14:16:08;24.40;39.40
51011;DHT22;37038;50.182;8.624;2023-07-20T14:19:09;24.70;39.90
51011;DHT22;37038;50.182;8.624;2023-07-20T14:22:06;24.30;38.20
51011;DHT22;37038;50.182;8.624;2023-07-20T14:25:00;25.30;36.50
51011;DHT22;37038;50.182;8.624;2023-07-20T14:28:01;25.90;35.40
51011;DHT22;37038;50.182;8.624;2023-07-20T14:30:55;26.00;36.90
51011;DHT22;37038;50.182;8.624;2023-07-20T14:33:48;26.30;29.40
51011;DHT22;37038;50.182;8.624;2023-07-20T14:36:42;25.90;29.10
51011;DHT22;37038;50.182;8.624;2023-07-20T14:39:33;26.60;27.90
51011;DHT22;37038;50.182;8.624;2023-07-20T14:42:24;27.60;28.60
51011;DHT22;37038;50.182;8.624;2023-07-20T14:45:15;28.50;27.20
51011;DHT22;37038;50.182;8.624;2023-07-20T14:48:16;31.10;26.70
51011;DHT22;37038;50.182;8.624;2023-07-20T14:51:16;32.60;17.50
51011;DHT22;37038;50.182;8.624;2023-07-20T14:54:06;32.60;15.20
51011;DHT22;37038;50.182;8.624;2023-07-20T14:56:55;32.50;14.10
51011;DHT22;37038;50.182;8.624;2023-07-20T14:59:46;32.80;12.50
51011;DHT22;37038;50.182;8.624;2023-07-20T15:02:35;32.40;12.40
51011;DHT22;37038;50.182;8.624;2023-07-20T15:05:29;31.20;12.70
51011;DHT22;37038;50.182;8.624;2023-07-20T15:08:18;30.90;10.30
51011;DHT22;37038;50.182;8.624;2023-07-20T15:11:07;30.40;11.80
51011;DHT22;37038;50.182;8.624;2023-07-20T15:13:57;30.90;11.00
51011;DHT22;37038;50.182;8.624;2023-07-20T15:16:50;31.10;10.10
51011;DHT22;37038;50.182;8.624;2023-07-20T15:19:46;32.20;9.40
51011;DHT22;37038;50.182;8.624;2023-07-20T15:22:37;30.10;7.60
51011;DHT22;37038;50.182;8.624;2023-07-20T15:25:29;27.70;11.90
51011;DHT22;37038;50.182;8.624;2023-07-20T15:33:37;27.70;13.80
51011;DHT22;37038;50.182;8.624;2023-07-20T15:36:30;27.80;16.00
51011;DHT22;37038;50.182;8.624;2023-07-20T15:43:07;29.60;13.40
51011;DHT22;37038;50.182;8.624;2023-07-20T15:46:30;29.10;13.90
51011;DHT22;37038;50.182;8.624;2023-07-20T15:49:20;28.90;14.30
51011;DHT22;37038;50.182;8.624;2023-07-20T15:52:25;28.70;13.60
51011;DHT22;37038;50.182;8.624;2023-07-20T15:55:23;28.50;13.70
51011;DHT22;37038;50.182;8.624;2023-07-20T15:58:34;27.30;13.80
51011;DHT22;37038;50.182;8.624;2023-07-20T16:01:26;26.50;14.50
51011;DHT22;37038;50.182;8.624;2023-07-20T16:04:20;26.20;15.50
51011;DHT22;37038;50.182;8.624;2023-07-20T16:07:12;26.80;16.20
51011;DHT22;37038;50.182;8.624;2023-07-20T16:09:59;26.90;14.90
51011;DHT22;37038;50.182;8.624;2023-07-20T16:12:53;26.80;17.00
51011;DHT22;37038;50.182;8.624;2023-07-20T16:15:44;27.30;16.20
51011;DHT22;37038;50.182;8.624;2023-07-20T16:18:40;27.50;16.80
51011;DHT22;37038;50.182;8.624;2023-07-20T16:21:48;27.40;13.80
51011;DHT22;37038;50.182;8.624;2023-07-20T16:24:37;26.50;15.40
51011;DHT22;37038;50.182;8.624;2023-07-20T16:27:26;26.70;16.90
51011;DHT22;37038;50.182;8.624;2023-07-20T16:30:16;26.90;16.80
51011;DHT22;37038;50.182;8.624;2023-07-20T16:33:05;27.00;17.40
51011;DHT22;37038;50.182;8.624;2023-07-20T16:36:09;27.10;15.50
51011;DHT22;37038;50.182;8.624;2023-07-20T16:38:57;27.10;19.20
51011;DHT22;37038;50.182;8.624;2023-07-20T16:41:48;27.00;17.20
51011;DHT22;37038;50.182;8.624;2023-07-20T16:44:54;27.10;16.60
51011;DHT22;37038;50.182;8.624;2023-07-20T16:47:45;27.00;17.90
51011;DHT22;37038;50.182;8.624;2023-07-20T16:50:34;26.90;16.60
51011;DHT22;37038;50.182;8.624;2023-07-20T16:53:23;27.00;15.80
51011;DHT22;37038;50.182;8.624;2023-07-20T16:56:19;26.80;17.90
51011;DHT22;37038;50.182;8.624;2023-07-20T16:59:06;26.70;16.40
51011;DHT22;37038;50.182;8.624;2023-07-20T17:01:55;26.70;17.70
51011;DHT22;37038;50.182;8.624;2023-07-20T17:04:43;26.50;17.60
51011;DHT22;37038;50.182;8.624;2023-07-20T17:07:38;25.90;20.50
51011;DHT22;37038;50.182;8.624;2023-07-20T17:10:29;25.50;21.90
51011;DHT22;37038;50.182;8.624;2023-07-20T17:13:17;25.40;21.90
51011;DHT22;37038;50.182;8.624;2023-07-20T17:16:05;25.20;23.10
51011;DHT22;37038;50.182;8.624;2023-07-20T17:18:54;25.30;23.70
51011;DHT22;37038;50.182;8.624;2023-07-20T17:21:43;25.20;23.50
51011;DHT22;37038;50.182;8.624;2023-07-20T17:24:35;25.20;23.70
51011;DHT22;37038;50.182;8.624;2023-07-20T17:27:27;25.10;24.30
51011;DHT22;37038;50.182;8.624;2023-07-20T17:30:19;25.10;26.00
51011;DHT22;37038;50.182;8.624;2023-07-20T17:33:07;25.10;26.00
51011;DHT22;37038;50.182;8.624;2023-07-20T17:35:57;25.30;26.10
51011;DHT22;37038;50.182;8.624;2023-07-20T17:38:48;25.30;26.40
51011;DHT22;37038;50.182;8.624;2023-07-20T17:41:38;25.30;26.20
51011;DHT22;37038;50.182;8.624;2023-07-20T17:44:26;25.10;26.50
51011;DHT22;37038;50.182;8.624;2023-07-20T17:47:15;25.70;25.80
51011;DHT22;37038;50.182;8.624;2023-07-20T17:50:06;25.60;25.40
51011;DHT22;37038;50.182;8.624;2023-07-20T17:52:54;25.50;26.90
51011;DHT22;37038;50.182;8.624;2023-07-20T17:55:46;25.40;26.40
51011;DHT22;37038;50.182;8.624;2023-07-20T17:58:35;25.10;25.80
51011;DHT22;37038;50.182;8.624;2023-07-20T18:01:24;24.60;26.20
51011;DHT22;37038;50.182;8.624;2023-07-20T18:04:15;24.20;26.90
51011;DHT22;37038;50.182;8.624;2023-07-20T18:07:03;24.10;28.20
51011;DHT22;37038;50.182;8.624;2023-07-20T18:09:51;24.10;27.70
51011;DHT22;37038;50.182;8.624;2023-07-20T18:12:38;24.10;28.30
51011;DHT22;37038;50.182;8.624;2023-07-20T18:15:28;24.10;28.50
51011;DHT22;37038;50.182;8.624;2023-07-20T18:18:18;24.10;28.20
51011;DHT22;37038;50.182;8.624;2023-07-20T18:21:07;24.10;30.10
51011;DHT22;37038;50.182;8.624;2023-07-20T18:23:55;24.20;29.70
51011;DHT22;37038;50.182;8.624;2023-07-20T18:26:44;24.10;29.10
51011;DHT22;37038;50.182;8.624;2023-07-20T18:29:34;24.00;30.00
51011;DHT22;37038;50.182;8.624;2023-07-20T18:32:22;23.90;30.40
51011;DHT22;37038;50.182;8.624;2023-07-20T18:35:12;23.90;30.40
51011;DHT22;37038;50.182;8.624;2023-07-20T18:38:01;23.80;31.40
51011;DHT22;37038;50.182;8.624;2023-07-20T18:40:49;23.70;31.60
51011;DHT22;37038;50.182;8.624;2023-07-20T18:43:38;23.60;31.70
51011;DHT22;37038;50.182;8.624;2023-07-20T18:46:29;23.40;31.10
51011;DHT22;37038;50.182;8.624;2023-07-20T18:49:18;23.30;32.30